createdAt,value
2023-04-05T00:00:47.184Z,98486.81
2023-04-05T00:03:20.275Z,98491.91
2023-04-05T00:05:54.745Z,98494.13
2023-04-05T00:08:28.501Z,98493.03
2023-04-05T00:11:02.838Z,98493.25
2023-04-05T00:13:35.841Z,98486.28
2023-04-05T00:16:09.396Z,98484.75
2023-04-05T00:18:46.091Z,98484.94
2023-04-05T00:21:21.687Z,98482.84
2023-04-05T00:23:58.462Z,98479.94
2023-04-05T00:26:32.794Z,98483.41
2023-04-05T00:29:06.027Z,98474.72
2023-04-05T00:31:39.053Z,98474.38
2023-04-05T00:34:12.517Z,98473.25
2023-04-05T00:36:45.538Z,98468.13
2023-04-05T00:39:18.686Z,98464.16
2023-04-05T00:41:52.997Z,98453.41
2023-04-05T00:44:26.651Z,98462.22
2023-04-05T00:46:59.631Z,98460.66
2023-04-05T00:49:36.409Z,98463.34
2023-04-05T00:52:09.530Z,98462.59
2023-04-05T00:54:43.373Z,98458.88
2023-04-05T00:57:18.252Z,98452.88
2023-04-05T00:59:51.843Z,98452.66
2023-04-05T01:02:33.785Z,98448.06
2023-04-05T01:05:16.344Z,98448.41
2023-04-05T01:07:59.678Z,98444.81
2023-04-05T01:10:39.660Z,98442.72
2023-04-05T01:13:14.190Z,98437.84
2023-04-05T01:15:47.289Z,98434.16
2023-04-05T01:18:21.971Z,98432.38
2023-04-05T01:21:02.937Z,98425.63
2023-04-05T01:23:46.559Z,98421.16
2023-04-05T01:26:50.031Z,98422.31
2023-04-05T01:29:52.295Z,98415.03
2023-04-05T01:32:46.200Z,98424.19
2023-04-05T01:35:27.100Z,98411.00
2023-04-05T01:38:04.912Z,98407.38
2023-04-05T01:40:39.205Z,98412.72
2023-04-05T01:43:16.042Z,98407.69
2023-04-05T01:45:50.445Z,98401.91
2023-04-05T01:48:23.502Z,98412.59
2023-04-05T01:50:56.559Z,98404.97
2023-04-05T01:53:29.566Z,98406.06
2023-04-05T01:56:03.199Z,98395.59
2023-04-05T01:58:36.172Z,98394.56
2023-04-05T02:01:10.577Z,98393.88
2023-04-05T02:03:43.726Z,98392.75
2023-04-05T02:06:16.796Z,98398.66
2023-04-05T02:08:49.786Z,98397.97
2023-04-05T02:11:22.754Z,98395.28
2023-04-05T02:13:55.733Z,98390.25
2023-04-05T02:16:33.420Z,98397.56
2023-04-05T02:19:06.994Z,98395.84
2023-04-05T02:21:40.874Z,98385.69
2023-04-05T02:24:13.950Z,98385.31
2023-04-05T02:26:47.080Z,98385.88
2023-04-05T02:29:20.092Z,98384.47
2023-04-05T02:31:54.573Z,98389.16
2023-04-05T02:34:27.592Z,98395.06
2023-04-05T02:37:01.800Z,98393.97
2023-04-05T02:39:34.831Z,98390.56
2023-04-05T02:42:07.869Z,98391.44
2023-04-05T02:44:41.087Z,98387.94
2023-04-05T02:47:21.199Z,98387.63
2023-04-05T02:49:54.202Z,98380.47
2023-04-05T02:52:27.199Z,98379.03
2023-04-05T02:55:00.160Z,98377.97
2023-04-05T02:57:33.145Z,98379.75
2023-04-05T03:00:08.925Z,98371.53
2023-04-05T03:02:43.281Z,98367.66
2023-04-05T03:05:18.718Z,98372.84
2023-04-05T03:07:51.937Z,98377.53
2023-04-05T03:10:25.265Z,98368.78
2023-04-05T03:12:58.685Z,98375.56
2023-04-05T03:15:35.634Z,98373.78
2023-04-05T03:18:10.674Z,98377.50
2023-04-05T03:20:45.789Z,98371.56
2023-04-05T03:23:18.905Z,98369.97
2023-04-05T03:25:52.698Z,98362.25
2023-04-05T03:28:25.901Z,98360.69
2023-04-05T03:30:59.008Z,98361.63
2023-04-05T03:33:33.323Z,98364.06
2023-04-05T03:36:07.134Z,98366.19
2023-04-05T03:38:42.538Z,98363.69
2023-04-05T03:41:16.243Z,98364.19
2023-04-05T03:43:50.002Z,98366.38
2023-04-05T03:46:23.125Z,98358.63
2023-04-05T03:48:59.091Z,98362.88
2023-04-05T03:51:32.686Z,98361.81
2023-04-05T03:54:06.168Z,98361.06
2023-04-05T03:56:39.257Z,98361.06
2023-04-05T03:59:12.388Z,98360.53
2023-04-05T04:01:45.570Z,98363.75
2023-04-05T04:04:19.897Z,98362.22
2023-04-05T04:06:52.866Z,98356.50
2023-04-05T04:09:28.050Z,98359.19
2023-04-05T04:12:01.018Z,98362.97
2023-04-05T04:14:36.368Z,98364.75
2023-04-05T04:17:09.371Z,98359.72
2023-04-05T04:19:43.655Z,98357.25
2023-04-05T04:22:20.753Z,98366.63
2023-04-05T04:24:54.723Z,98363.63
2023-04-05T04:27:30.212Z,98364.38
2023-04-05T04:30:04.432Z,98375.50
2023-04-05T04:32:52.807Z,98363.50
2023-04-05T04:35:29.533Z,98372.38
2023-04-05T04:38:04.899Z,98374.94
2023-04-05T04:40:39.621Z,98378.75
2023-04-05T04:43:17.347Z,98372.13
2023-04-05T04:45:54.683Z,98376.78
2023-04-05T04:48:27.707Z,98375.63
2023-04-05T04:51:04.274Z,98378.28
2023-04-05T04:53:37.294Z,98375.78
2023-04-05T04:56:12.106Z,98377.22
2023-04-05T04:58:45.464Z,98381.47
2023-04-05T05:01:18.534Z,98376.47
2023-04-05T05:03:51.550Z,98378.06
2023-04-05T05:06:27.083Z,98374.13
2023-04-05T05:09:00.112Z,98374.09
2023-04-05T05:11:33.802Z,98372.47
2023-04-05T05:14:06.755Z,98370.16
2023-04-05T05:16:39.748Z,98375.38
2023-04-05T05:19:12.783Z,98373.59
2023-04-05T05:21:49.362Z,98371.59
2023-04-05T05:24:22.511Z,98367.03
2023-04-05T05:26:55.499Z,98368.28
2023-04-05T05:29:28.872Z,98371.63
2023-04-05T05:32:01.843Z,98375.53
2023-04-05T05:34:34.820Z,98374.44
2023-04-05T05:37:09.717Z,98374.22
2023-04-05T05:39:44.531Z,98377.81
2023-04-05T05:42:17.484Z,98377.16
2023-04-05T05:44:50.572Z,98377.25
2023-04-05T05:47:23.563Z,98381.19
2023-04-05T05:49:56.498Z,98374.72
2023-04-05T05:52:30.884Z,98383.81
2023-04-05T05:55:04.294Z,98383.25
2023-04-05T05:57:38.753Z,98384.06
2023-04-05T06:00:13.620Z,98379.47
2023-04-05T06:02:46.738Z,98392.03
2023-04-05T06:05:19.814Z,98379.09
2023-04-05T06:07:54.102Z,98368.25
2023-04-05T06:10:27.121Z,98374.56
2023-04-05T06:13:00.269Z,98371.88
2023-04-05T06:15:33.244Z,98372.50
2023-04-05T06:18:06.397Z,98373.66
2023-04-05T06:20:41.197Z,98375.47
2023-04-05T06:23:16.097Z,98372.88
2023-04-05T06:25:49.135Z,98370.72
2023-04-05T06:28:22.063Z,98363.19
2023-04-05T06:30:59.379Z,98364.91
2023-04-05T06:33:32.316Z,98368.34
2023-04-05T06:36:05.790Z,98368.53
2023-04-05T06:38:40.109Z,98372.13
2023-04-05T06:41:13.202Z,98373.25
2023-04-05T06:43:46.328Z,98371.88
2023-04-05T06:46:19.311Z,98371.66
2023-04-05T06:48:53.522Z,98372.69
2023-04-05T06:51:27.022Z,98371.25
2023-04-05T06:54:01.326Z,98363.69
2023-04-05T06:56:34.248Z,98367.66
2023-04-05T06:59:07.233Z,98365.00
2023-04-05T07:01:40.264Z,98368.03
2023-04-05T07:04:13.863Z,98361.31
2023-04-05T07:06:46.790Z,98367.25
2023-04-05T07:09:22.228Z,98364.38
2023-04-05T07:11:56.609Z,98357.19
2023-04-05T07:14:31.027Z,98357.81
2023-04-05T07:17:06.052Z,98360.56
2023-04-05T07:19:39.047Z,98359.38
2023-04-05T07:22:12.018Z,98361.09
2023-04-05T07:24:48.511Z,98357.53
2023-04-05T07:27:21.500Z,98355.16
2023-04-05T07:29:54.454Z,98359.22
2023-04-05T07:32:27.599Z,98347.25
2023-04-05T07:35:00.745Z,98351.31
2023-04-05T07:37:33.774Z,98350.06
2023-04-05T07:40:10.957Z,98348.13
2023-04-05T07:42:44.015Z,98349.66
2023-04-05T07:45:17.069Z,98355.16
2023-04-05T07:47:50.067Z,98355.81
2023-04-05T07:50:23.118Z,98358.44
2023-04-05T07:52:56.138Z,98355.56
2023-04-05T07:55:30.450Z,98347.81
2023-04-05T07:58:03.365Z,98358.41
2023-04-05T08:00:37.040Z,98361.84
2023-04-05T08:03:09.975Z,98353.72
2023-04-05T08:05:43.014Z,98355.47
2023-04-05T08:08:16.078Z,98350.91
2023-04-05T08:10:50.341Z,98353.88
2023-04-05T08:13:23.449Z,98349.84
2023-04-05T08:15:57.369Z,98347.75
2023-04-05T08:18:30.618Z,98335.91
2023-04-05T08:21:03.679Z,98349.72
2023-04-05T08:23:36.763Z,98336.38
2023-04-05T08:26:11.256Z,98338.03
2023-04-05T08:28:44.224Z,98337.59
2023-04-05T08:31:17.225Z,98344.75
2023-04-05T08:33:50.442Z,98331.13
2023-04-05T08:36:23.477Z,98329.97
2023-04-05T08:38:56.413Z,98336.50
2023-04-05T08:41:36.851Z,98331.06
2023-04-05T08:44:11.568Z,98338.13
2023-04-05T08:46:45.342Z,98337.66
2023-04-05T08:49:18.350Z,98333.47
2023-04-05T08:51:51.334Z,98334.03
2023-04-05T08:54:24.286Z,98332.47
2023-04-05T08:57:01.069Z,98337.72
2023-04-05T08:59:37.870Z,98341.78
2023-04-05T09:02:17.235Z,98329.78
2023-04-05T09:04:51.639Z,98326.31
2023-04-05T09:07:26.434Z,98330.53
2023-04-05T09:10:01.788Z,98324.66
2023-04-05T09:12:38.519Z,98327.63
2023-04-05T09:15:12.522Z,98328.69
2023-04-05T09:17:45.622Z,98335.28
2023-04-05T09:20:18.901Z,98330.09
2023-04-05T09:22:51.831Z,98341.13
2023-04-05T09:25:39.677Z,98335.75
2023-04-05T09:28:14.096Z,98338.44
2023-04-05T09:30:47.961Z,98339.19
2023-04-05T09:33:22.163Z,98331.53
2023-04-05T09:35:56.785Z,98328.50
2023-04-05T09:38:44.580Z,98332.81
2023-04-05T09:41:17.651Z,98329.53
2023-04-05T09:43:54.156Z,98333.81
2023-04-05T09:46:34.243Z,98325.06
2023-04-05T09:49:10.258Z,98318.38
2023-04-05T09:51:43.283Z,98317.59
2023-04-05T09:54:17.307Z,98326.94
2023-04-05T09:56:57.597Z,98321.75
2023-04-05T09:59:34.278Z,98322.88
2023-04-05T10:02:07.306Z,98315.00
2023-04-05T10:04:41.689Z,98312.66
2023-04-05T10:07:17.378Z,98308.16
2023-04-05T10:09:50.443Z,98307.03
2023-04-05T10:12:28.581Z,98303.53
2023-04-05T10:15:02.937Z,98299.03
2023-04-05T10:17:45.569Z,98299.59
2023-04-05T10:20:21.043Z,98304.81
2023-04-05T10:23:02.931Z,98299.78
2023-04-05T10:25:53.052Z,98296.25
2023-04-05T10:28:32.794Z,98289.13
2023-04-05T10:31:21.081Z,98289.88
2023-04-05T10:34:06.885Z,98289.72
2023-04-05T10:36:52.207Z,98292.41
2023-04-05T10:39:29.982Z,98288.09
2023-04-05T10:42:14.210Z,98289.06
2023-04-05T10:44:52.310Z,98294.88
2023-04-05T10:47:29.758Z,98283.16
2023-04-05T10:50:06.264Z,98292.00
2023-04-05T10:52:41.469Z,98293.38
2023-04-05T10:55:15.367Z,98289.50
2023-04-05T10:57:49.984Z,98284.97
2023-04-05T11:00:24.723Z,98274.06
2023-04-05T11:02:59.339Z,98274.41
2023-04-05T11:05:34.806Z,98272.22
2023-04-05T11:08:09.831Z,98275.09
2023-04-05T11:10:43.257Z,98272.53
2023-04-05T11:13:16.413Z,98280.03
2023-04-05T11:16:09.917Z,98273.84
2023-04-05T11:18:48.171Z,98279.97
2023-04-05T11:21:26.141Z,98271.16
2023-04-05T11:24:06.589Z,98272.59
2023-04-05T11:26:56.097Z,98268.00
2023-04-05T11:29:49.538Z,98264.81
2023-04-05T11:32:23.536Z,98253.31
2023-04-05T11:35:06.347Z,98252.56
2023-04-05T11:37:56.206Z,98249.22
2023-04-05T11:40:31.254Z,98250.72
2023-04-05T11:43:07.517Z,98252.75
2023-04-05T11:45:43.463Z,98248.31
2023-04-05T11:48:16.728Z,98240.63
2023-04-05T11:50:52.528Z,98242.06
2023-04-05T11:53:25.510Z,98238.69
2023-04-05T11:56:09.502Z,98230.34
2023-04-05T11:58:43.621Z,98230.69
2023-04-05T12:01:16.562Z,98229.41
2023-04-05T12:03:55.424Z,98224.59
2023-04-05T12:06:29.968Z,98229.72
2023-04-05T12:09:02.904Z,98221.06
2023-04-05T12:11:36.808Z,98209.56
2023-04-05T12:14:09.725Z,98222.41
2023-04-05T12:16:50.762Z,98213.78
2023-04-05T12:19:24.258Z,98213.28
2023-04-05T12:21:58.655Z,98215.22
2023-04-05T12:24:31.714Z,98208.56
2023-04-05T12:27:04.898Z,98204.75
2023-04-05T12:29:37.836Z,98206.50
2023-04-05T12:32:12.036Z,98205.91
2023-04-05T12:34:49.076Z,98206.38
2023-04-05T12:37:23.455Z,98200.19
2023-04-05T12:39:56.427Z,98188.09
2023-04-05T12:42:35.680Z,98197.31
2023-04-05T12:45:13.216Z,98186.28
2023-04-05T12:47:51.542Z,98187.78
2023-04-05T12:50:29.060Z,98187.09
2023-04-05T12:53:07.447Z,98182.97
2023-04-05T12:55:46.523Z,98177.19
2023-04-05T12:58:20.861Z,98181.09
2023-04-05T13:00:53.952Z,98170.09
2023-04-05T13:03:28.136Z,98174.88
2023-04-05T13:06:01.190Z,98163.56
2023-04-05T13:08:36.564Z,98161.22
2023-04-05T13:11:09.538Z,98158.94
2023-04-05T13:13:42.521Z,98159.19
2023-04-05T13:16:15.620Z,98152.81
2023-04-05T13:18:49.051Z,98143.97
2023-04-05T13:21:22.181Z,98155.72
2023-04-05T13:23:56.511Z,98152.91
2023-04-05T13:26:31.677Z,98150.97
2023-04-05T13:29:05.236Z,98141.59
2023-04-05T13:31:38.264Z,98137.50
2023-04-05T13:34:11.364Z,98136.69
2023-04-05T13:36:44.340Z,98146.00
2023-04-05T13:39:18.654Z,98145.13
2023-04-05T13:41:51.623Z,98150.59
2023-04-05T13:44:24.722Z,98134.59
2023-04-05T13:46:57.722Z,98137.28
2023-04-05T13:49:30.746Z,98132.50
2023-04-05T13:52:03.736Z,98125.22
2023-04-05T13:54:38.147Z,98127.91
2023-04-05T13:57:12.036Z,98126.69
2023-04-05T13:59:45.293Z,98127.16
2023-04-05T14:02:20.684Z,98123.78
2023-04-05T14:04:53.921Z,98126.56
2023-04-05T14:07:26.937Z,98122.47
2023-04-05T14:10:01.294Z,98123.94
2023-04-05T14:12:35.364Z,98118.53
2023-04-05T14:15:09.414Z,98127.66
2023-04-05T14:17:42.651Z,98125.09
2023-04-05T14:20:15.789Z,98119.22
2023-04-05T14:22:48.751Z,98124.44
2023-04-05T14:25:23.033Z,98115.41
2023-04-05T14:27:56.039Z,98119.34
2023-04-05T14:30:29.212Z,98108.34
2023-04-05T14:33:02.588Z,98107.41
2023-04-05T14:35:35.715Z,98105.72
2023-04-05T14:38:08.697Z,98104.94
2023-04-05T14:40:43.893Z,98102.59
2023-04-05T14:43:16.865Z,98100.84
2023-04-05T14:45:49.927Z,98091.09
2023-04-05T14:48:22.892Z,98091.97
2023-04-05T14:50:56.764Z,98091.19
2023-04-05T14:53:29.821Z,98091.88
2023-04-05T14:56:04.590Z,98094.03
2023-04-05T14:58:37.711Z,98090.78
2023-04-05T15:01:11.033Z,98087.81
2023-04-05T15:03:44.233Z,98084.31
2023-04-05T15:06:17.343Z,98086.88
2023-04-05T15:08:51.333Z,98083.63
2023-04-05T15:11:25.640Z,98095.09
2023-04-05T15:13:58.613Z,98089.78
2023-04-05T15:16:31.597Z,98092.56
2023-04-05T15:19:04.635Z,98092.06
2023-04-05T15:21:39.010Z,98081.81
2023-04-05T15:24:12.540Z,98092.22
2023-04-05T15:26:46.855Z,98084.13
2023-04-05T15:29:19.788Z,98083.44
2023-04-05T15:31:52.921Z,98076.81
2023-04-05T15:34:25.978Z,98070.72
2023-04-05T15:36:59.011Z,98080.78
2023-04-05T15:39:31.982Z,98072.81
2023-04-05T15:42:06.626Z,98070.19
2023-04-05T15:44:39.655Z,98068.03
2023-04-05T15:47:12.610Z,98068.75
2023-04-05T15:49:45.802Z,98073.75
2023-04-05T15:52:19.088Z,98074.47
2023-04-05T15:54:52.736Z,98078.78
2023-04-05T15:57:27.013Z,98073.59
2023-04-05T16:00:00.092Z,98077.81
2023-04-05T16:02:33.213Z,98070.66
2023-04-05T16:05:07.138Z,98074.91
2023-04-05T16:07:40.175Z,98074.50
2023-04-05T16:10:13.325Z,98073.25
2023-04-05T16:12:47.629Z,98073.44
2023-04-05T16:15:20.991Z,98072.44
2023-04-05T16:17:53.996Z,98075.72
2023-04-05T16:20:27.319Z,98080.81
2023-04-05T16:23:00.373Z,98078.34
2023-04-05T16:25:33.570Z,98070.94
2023-04-05T16:28:08.085Z,98072.69
2023-04-05T16:30:41.524Z,98074.22
2023-04-05T16:33:14.550Z,98070.41
2023-04-05T16:35:48.711Z,98070.41
2023-04-05T16:38:21.710Z,98070.06
2023-04-05T16:40:54.695Z,98074.06
2023-04-05T16:43:29.496Z,98071.75
2023-04-05T16:46:02.666Z,98067.03
2023-04-05T16:48:36.195Z,98068.44
2023-04-05T16:51:09.141Z,98079.31
2023-04-05T16:53:42.155Z,98082.94
2023-04-05T16:56:16.027Z,98082.84
2023-04-05T16:58:51.276Z,98074.69
2023-04-05T17:01:24.328Z,98075.59
2023-04-05T17:03:59.791Z,98082.66
2023-04-05T17:06:33.522Z,98080.41
2023-04-05T17:09:06.694Z,98078.63
2023-04-05T17:11:39.847Z,98084.91
2023-04-05T17:14:14.122Z,98076.88
2023-04-05T17:16:47.937Z,98080.59
2023-04-05T17:19:20.905Z,98080.03
2023-04-05T17:21:53.879Z,98075.59
2023-04-05T17:24:27.519Z,98080.41
2023-04-05T17:27:01.122Z,98083.16
2023-04-05T17:29:35.448Z,98086.69
2023-04-05T17:32:08.702Z,98076.88
2023-04-05T17:34:41.901Z,98078.44
2023-04-05T17:37:14.797Z,98081.19
2023-04-05T17:39:47.744Z,98080.47
2023-04-05T17:42:20.772Z,98085.31
2023-04-05T17:44:56.658Z,98089.94
2023-04-05T17:47:29.780Z,98085.81
2023-04-05T17:50:03.079Z,98092.97
2023-04-05T17:52:36.072Z,98092.09
2023-04-05T17:55:10.299Z,98098.53
2023-04-05T17:57:43.214Z,98095.28
2023-04-05T18:00:18.840Z,98100.97
2023-04-05T18:02:52.285Z,98094.00
2023-04-05T18:05:27.060Z,98096.44
2023-04-05T18:08:00.229Z,98099.59
2023-04-05T18:10:33.326Z,98099.19
2023-04-05T18:13:06.402Z,98104.06
2023-04-05T18:15:41.315Z,98110.72
2023-04-05T18:18:14.263Z,98108.06
2023-04-05T18:20:50.770Z,98110.13
2023-04-05T18:23:24.789Z,98112.94
2023-04-05T18:25:59.544Z,98117.19
2023-04-05T18:28:32.546Z,98117.34
2023-04-05T18:31:09.524Z,98121.41
2023-04-05T18:33:42.795Z,98127.50
2023-04-05T18:36:15.782Z,98135.94
2023-04-05T18:38:48.798Z,98136.50
2023-04-05T18:41:21.943Z,98137.63
2023-04-05T18:43:55.225Z,98138.72
2023-04-05T18:46:29.559Z,98142.28
2023-04-05T18:49:02.593Z,98141.63
2023-04-05T18:51:35.618Z,98149.56
2023-04-05T18:54:08.725Z,98154.75
2023-04-05T18:56:41.695Z,98160.25
2023-04-05T18:59:16.170Z,98158.25
2023-04-05T19:01:50.598Z,98162.19
2023-04-05T19:04:23.628Z,98172.88
2023-04-05T19:06:57.599Z,98171.31
2023-04-05T19:09:31.038Z,98168.97
2023-04-05T19:12:04.283Z,98176.75
2023-04-05T19:14:37.396Z,98178.25
2023-04-05T19:17:11.727Z,98178.56
2023-04-05T19:19:44.671Z,98176.28
2023-04-05T19:22:17.678Z,98179.00
2023-04-05T19:24:50.866Z,98174.59
2023-04-05T19:27:23.803Z,98174.34
2023-04-05T19:29:57.585Z,98176.19
2023-04-05T19:32:31.949Z,98183.69
2023-04-05T19:35:06.910Z,98180.91
2023-04-05T19:37:39.950Z,98187.94
2023-04-05T19:40:13.126Z,98193.53
2023-04-05T19:42:48.976Z,98184.94
2023-04-05T19:45:26.775Z,98193.81
2023-04-05T19:48:03.240Z,98185.47
2023-04-05T19:50:55.016Z,98186.22
2023-04-05T19:53:41.704Z,98187.75
2023-04-05T19:56:18.717Z,98186.88
2023-04-05T19:58:59.963Z,98186.47
2023-04-05T20:01:36.071Z,98182.19
2023-04-05T20:04:16.119Z,98179.34
2023-04-05T20:06:53.164Z,98185.56
2023-04-05T20:09:29.238Z,98190.75
2023-04-05T20:12:05.637Z,98191.75
2023-04-05T20:14:43.005Z,98180.72
2023-04-05T20:17:18.869Z,98188.84
2023-04-05T20:20:01.044Z,98189.22
2023-04-05T20:22:34.198Z,98187.16
2023-04-05T20:25:38.447Z,98183.63
2023-04-05T20:28:38.621Z,98184.09
2023-04-05T20:31:18.876Z,98181.31
2023-04-05T20:33:55.078Z,98177.13
2023-04-05T20:36:34.456Z,98183.91
2023-04-05T20:39:08.057Z,98180.03
2023-04-05T20:41:41.465Z,98189.06
2023-04-05T20:44:14.460Z,98186.25
2023-04-05T20:46:47.436Z,98190.28
2023-04-05T20:49:20.417Z,98185.81
2023-04-05T20:51:55.675Z,98181.19
2023-04-05T20:54:28.956Z,98185.75
2023-04-05T20:57:02.949Z,98192.84
2023-04-05T20:59:36.039Z,98192.31
2023-04-05T21:02:09.130Z,98187.69
2023-04-05T21:04:42.419Z,98185.41
2023-04-05T21:07:17.575Z,98189.03
2023-04-05T21:09:50.660Z,98192.88
2023-04-05T21:12:23.614Z,98191.81
2023-04-05T21:14:56.569Z,98195.28
2023-04-05T21:17:29.691Z,98199.31
2023-04-05T21:20:02.678Z,98202.66
2023-04-05T21:22:38.027Z,98194.41
2023-04-05T21:25:11.236Z,98196.50
2023-04-05T21:27:44.205Z,98200.84
2023-04-05T21:30:17.988Z,98196.72
2023-04-05T21:32:51.316Z,98200.91
2023-04-05T21:35:24.578Z,98198.16
2023-04-05T21:37:58.951Z,98191.94
2023-04-05T21:40:32.299Z,98198.03
2023-04-05T21:43:05.463Z,98198.75
2023-04-05T21:45:38.425Z,98209.78
2023-04-05T21:48:11.395Z,98200.72
2023-04-05T21:50:44.370Z,98206.69
2023-04-05T21:53:18.835Z,98197.69
2023-04-05T21:55:52.508Z,98196.78
2023-04-05T21:58:26.411Z,98200.06
2023-04-05T22:01:00.279Z,98195.63
2023-04-05T22:03:33.308Z,98196.97
2023-04-05T22:06:06.858Z,98199.47
2023-04-05T22:08:41.200Z,98198.91
2023-04-05T22:11:14.310Z,98204.16
2023-04-05T22:13:47.483Z,98211.72
2023-04-05T22:16:20.471Z,98207.59
2023-04-05T22:18:53.407Z,98211.00
2023-04-05T22:21:26.532Z,98209.09
2023-04-05T22:24:00.962Z,98216.25
2023-04-05T22:26:34.272Z,98211.22
2023-04-05T22:29:07.984Z,98214.75
2023-04-05T22:31:41.437Z,98214.75
2023-04-05T22:34:14.447Z,98219.81
2023-04-05T22:36:47.435Z,98216.13
2023-04-05T22:39:21.777Z,98211.38
2023-04-05T22:41:54.785Z,98211.69
2023-04-05T22:44:27.706Z,98212.28
2023-04-05T22:47:00.675Z,98205.59
2023-04-05T22:49:33.675Z,98205.91
2023-04-05T22:52:06.744Z,98207.25
2023-04-05T22:54:41.289Z,98206.19
2023-04-05T22:57:14.343Z,98199.09
2023-04-05T22:59:47.271Z,98200.88
2023-04-05T23:02:20.805Z,98199.41
2023-04-05T23:04:53.787Z,98201.75
2023-04-05T23:07:29.019Z,98202.81
2023-04-05T23:10:03.314Z,98197.94
2023-04-05T23:12:36.291Z,98200.56
2023-04-05T23:15:10.549Z,98198.03
2023-04-05T23:17:43.531Z,98206.44
2023-04-05T23:20:16.827Z,98203.81
2023-04-05T23:22:49.972Z,98205.28
2023-04-05T23:25:24.360Z,98204.97
2023-04-05T23:27:57.297Z,98202.56
2023-04-05T23:30:30.228Z,98203.78
2023-04-05T23:33:03.291Z,98200.66
2023-04-05T23:35:36.362Z,98201.09
2023-04-05T23:38:09.325Z,98200.22
2023-04-05T23:40:43.586Z,98201.56
2023-04-05T23:43:16.635Z,98206.59
2023-04-05T23:45:49.585Z,98200.91
2023-04-05T23:48:22.524Z,98195.59
2023-04-05T23:50:55.456Z,98199.59
2023-04-05T23:53:28.410Z,98204.19
2023-04-05T23:56:02.734Z,98198.47
2023-04-05T23:58:35.737Z,98194.59
